sensor_id;sensor_type;location;lat;lon;timestamp;P1;durP1;ratioP1;P2;durP2;ratioP2
66893;SDS011;53801;55.786;49.142;2022-12-18T00:06:31;24.90;;;9.20;;
66893;SDS011;53801;55.786;49.142;2022-12-18T00:08:58;28.38;;;8.23;;
66893;SDS011;53801;55.786;49.142;2022-12-18T00:11:25;31.20;;;8.13;;
66893;SDS011;53801;55.786;49.142;2022-12-18T00:13:52;24.23;;;7.97;;
66893;SDS011;53801;55.786;49.142;2022-12-18T00:16:19;27.23;;;8.73;;
66893;SDS011;53801;55.786;49.142;2022-12-18T00:18:46;28.98;;;9.18;;
66893;SDS011;53801;55.786;49.142;2022-12-18T00:21:12;32.63;;;9.93;;
66893;SDS011;53801;55.786;49.142;2022-12-18T00:23:37;32.75;;;9.45;;
66893;SDS011;53801;55.786;49.142;2022-12-18T00:26:08;33.55;;;9.00;;
66893;SDS011;53801;55.786;49.142;2022-12-18T00:28:34;27.73;;;8.35;;
66893;SDS011;53801;55.786;49.142;2022-12-18T00:31:06;28.73;;;9.17;;
66893;SDS011;53801;55.786;49.142;2022-12-18T00:33:35;25.92;;;8.98;;
66893;SDS011;53801;55.786;49.142;2022-12-18T00:36:08;22.80;;;7.90;;
66893;SDS011;53801;55.786;49.142;2022-12-18T00:38:34;29.48;;;7.50;;
66893;SDS011;53801;55.786;49.142;2022-12-18T00:41:00;27.85;;;9.43;;
66893;SDS011;53801;55.786;49.142;2022-12-18T00:43:25;29.53;;;9.07;;
66893;SDS011;53801;55.786;49.142;2022-12-18T00:45:51;30.93;;;9.97;;
66893;SDS011;53801;55.786;49.142;2022-12-18T00:48:16;29.50;;;8.40;;
66893;SDS011;53801;55.786;49.142;2022-12-18T00:50:41;27.63;;;9.03;;
66893;SDS011;53801;55.786;49.142;2022-12-18T00:53:07;32.60;;;9.80;;
66893;SDS011;53801;55.786;49.142;2022-12-18T00:55:32;29.93;;;9.23;;
66893;SDS011;53801;55.786;49.142;2022-12-18T00:57:57;38.23;;;9.33;;
66893;SDS011;53801;55.786;49.142;2022-12-18T01:00:23;31.92;;;9.38;;
66893;SDS011;53801;55.786;49.142;2022-12-18T01:02:48;27.47;;;8.63;;
66893;SDS011;53801;55.786;49.142;2022-12-18T01:05:15;33.00;;;9.07;;
66893;SDS011;53801;55.786;49.142;2022-12-18T01:07:40;20.17;;;6.18;;
66893;SDS011;53801;55.786;49.142;2022-12-18T01:10:06;28.63;;;8.37;;
66893;SDS011;53801;55.786;49.142;2022-12-18T01:12:32;32.30;;;10.52;;
66893;SDS011;53801;55.786;49.142;2022-12-18T01:14:58;32.42;;;9.35;;
66893;SDS011;53801;55.786;49.142;2022-12-18T01:17:23;38.20;;;9.33;;
66893;SDS011;53801;55.786;49.142;2022-12-18T01:19:49;22.47;;;6.93;;
66893;SDS011;53801;55.786;49.142;2022-12-18T01:22:14;30.60;;;9.63;;
66893;SDS011;53801;55.786;49.142;2022-12-18T01:24:40;31.10;;;9.60;;
66893;SDS011;53801;55.786;49.142;2022-12-18T01:27:05;28.90;;;8.73;;
66893;SDS011;53801;55.786;49.142;2022-12-18T01:29:31;27.53;;;8.47;;
66893;SDS011;53801;55.786;49.142;2022-12-18T01:31:56;31.48;;;9.00;;
66893;SDS011;53801;55.786;49.142;2022-12-18T01:34:22;32.23;;;9.80;;
66893;SDS011;53801;55.786;49.142;2022-12-18T01:36:48;32.13;;;9.27;;
66893;SDS011;53801;55.786;49.142;2022-12-18T01:39:14;30.05;;;8.65;;
66893;SDS011;53801;55.786;49.142;2022-12-18T01:41:40;42.47;;;8.55;;
66893;SDS011;53801;55.786;49.142;2022-12-18T01:47:08;30.58;;;9.30;;
66893;SDS011;53801;55.786;49.142;2022-12-18T01:49:34;28.77;;;8.90;;
66893;SDS011;53801;55.786;49.142;2022-12-18T01:51:59;30.63;;;9.00;;
66893;SDS011;53801;55.786;49.142;2022-12-18T01:54:28;23.70;;;7.00;;
66893;SDS011;53801;55.786;49.142;2022-12-18T01:56:53;30.65;;;9.10;;
66893;SDS011;53801;55.786;49.142;2022-12-18T01:59:19;24.80;;;6.97;;
66893;SDS011;53801;55.786;49.142;2022-12-18T02:01:44;27.63;;;8.90;;
66893;SDS011;53801;55.786;49.142;2022-12-18T02:06:40;29.50;;;7.68;;
66893;SDS011;53801;55.786;49.142;2022-12-18T02:09:19;27.73;;;7.75;;
66893;SDS011;53801;55.786;49.142;2022-12-18T02:11:53;36.35;;;9.45;;
66893;SDS011;53801;55.786;49.142;2022-12-18T02:16:46;26.93;;;6.70;;
66893;SDS011;53801;55.786;49.142;2022-12-18T02:24:35;34.15;;;8.52;;
66893;SDS011;53801;55.786;49.142;2022-12-18T02:27:04;29.55;;;9.02;;
66893;SDS011;53801;55.786;49.142;2022-12-18T02:32:15;30.42;;;8.85;;
66893;SDS011;53801;55.786;49.142;2022-12-18T02:34:42;27.13;;;8.00;;
66893;SDS011;53801;55.786;49.142;2022-12-18T02:37:09;27.77;;;7.68;;
66893;SDS011;53801;55.786;49.142;2022-12-18T02:39:36;32.42;;;9.30;;
66893;SDS011;53801;55.786;49.142;2022-12-18T02:42:03;26.40;;;8.70;;
66893;SDS011;53801;55.786;49.142;2022-12-18T02:44:33;25.80;;;8.82;;
66893;SDS011;53801;55.786;49.142;2022-12-18T02:46:58;32.38;;;8.80;;
66893;SDS011;53801;55.786;49.142;2022-12-18T02:52:25;18.08;;;5.07;;
66893;SDS011;53801;55.786;49.142;2022-12-18T02:57:42;32.72;;;8.23;;
66893;SDS011;53801;55.786;49.142;2022-12-18T03:00:31;30.63;;;8.48;;
66893;SDS011;53801;55.786;49.142;2022-12-18T03:03:31;19.70;;;6.90;;
66893;SDS011;53801;55.786;49.142;2022-12-18T03:05:50;29.42;;;7.63;;
66893;SDS011;53801;55.786;49.142;2022-12-18T03:08:30;24.87;;;7.97;;
66893;SDS011;53801;55.786;49.142;2022-12-18T03:10:58;29.55;;;8.85;;
66893;SDS011;53801;55.786;49.142;2022-12-18T03:16:02;22.33;;;7.75;;
66893;SDS011;53801;55.786;49.142;2022-12-18T03:18:35;31.00;;;8.10;;
66893;SDS011;53801;55.786;49.142;2022-12-18T03:21:02;28.63;;;9.27;;
66893;SDS011;53801;55.786;49.142;2022-12-18T03:23:31;37.63;;;9.45;;
66893;SDS011;53801;55.786;49.142;2022-12-18T03:25:58;32.00;;;9.35;;
66893;SDS011;53801;55.786;49.142;2022-12-18T03:28:25;24.30;;;7.65;;
66893;SDS011;53801;55.786;49.142;2022-12-18T03:30:57;34.05;;;9.27;;
66893;SDS011;53801;55.786;49.142;2022-12-18T03:33:27;37.33;;;11.00;;
66893;SDS011;53801;55.786;49.142;2022-12-18T03:35:54;27.75;;;9.27;;
66893;SDS011;53801;55.786;49.142;2022-12-18T03:38:20;40.92;;;9.25;;
66893;SDS011;53801;55.786;49.142;2022-12-18T03:43:38;36.08;;;11.43;;
66893;SDS011;53801;55.786;49.142;2022-12-18T03:46:05;35.13;;;9.23;;
66893;SDS011;53801;55.786;49.142;2022-12-18T03:48:33;37.10;;;9.98;;
66893;SDS011;53801;55.786;49.142;2022-12-18T03:51:05;30.50;;;9.10;;
66893;SDS011;53801;55.786;49.142;2022-12-18T03:53:43;31.52;;;9.80;;
66893;SDS011;53801;55.786;49.142;2022-12-18T03:56:10;33.38;;;9.68;;
66893;SDS011;53801;55.786;49.142;2022-12-18T03:58:36;30.87;;;8.73;;
66893;SDS011;53801;55.786;49.142;2022-12-18T04:01:03;37.47;;;9.95;;
66893;SDS011;53801;55.786;49.142;2022-12-18T04:03:29;30.17;;;8.70;;
66893;SDS011;53801;55.786;49.142;2022-12-18T04:05:57;32.10;;;8.52;;
66893;SDS011;53801;55.786;49.142;2022-12-18T04:08:23;25.83;;;8.63;;
66893;SDS011;53801;55.786;49.142;2022-12-18T04:10:49;29.47;;;8.27;;
66893;SDS011;53801;55.786;49.142;2022-12-18T04:13:27;24.55;;;7.07;;
66893;SDS011;53801;55.786;49.142;2022-12-18T04:15:53;24.00;;;7.50;;
66893;SDS011;53801;55.786;49.142;2022-12-18T04:18:18;23.02;;;7.88;;
66893;SDS011;53801;55.786;49.142;2022-12-18T04:23:16;16.55;;;6.95;;
66893;SDS011;53801;55.786;49.142;2022-12-18T04:25:42;15.87;;;5.17;;
66893;SDS011;53801;55.786;49.142;2022-12-18T04:28:07;25.17;;;7.07;;
66893;SDS011;53801;55.786;49.142;2022-12-18T04:30:33;21.60;;;6.63;;
66893;SDS011;53801;55.786;49.142;2022-12-18T04:32:58;21.27;;;6.00;;
66893;SDS011;53801;55.786;49.142;2022-12-18T04:35:30;16.17;;;5.47;;
66893;SDS011;53801;55.786;49.142;2022-12-18T04:37:56;21.57;;;6.17;;
66893;SDS011;53801;55.786;49.142;2022-12-18T04:40:21;19.77;;;6.03;;
66893;SDS011;53801;55.786;49.142;2022-12-18T04:42:46;22.77;;;6.60;;
66893;SDS011;53801;55.786;49.142;2022-12-18T04:45:14;12.70;;;4.90;;
66893;SDS011;53801;55.786;49.142;2022-12-18T04:47:39;20.38;;;5.10;;
66893;SDS011;53801;55.786;49.142;2022-12-18T04:50:04;24.47;;;5.93;;
66893;SDS011;53801;55.786;49.142;2022-12-18T04:52:33;20.17;;;6.27;;
66893;SDS011;53801;55.786;49.142;2022-12-18T04:54:58;20.17;;;5.22;;
66893;SDS011;53801;55.786;49.142;2022-12-18T04:57:24;18.20;;;6.07;;
66893;SDS011;53801;55.786;49.142;2022-12-18T04:59:49;17.67;;;4.53;;
66893;SDS011;53801;55.786;49.142;2022-12-18T05:02:14;15.97;;;5.83;;
66893;SDS011;53801;55.786;49.142;2022-12-18T05:04:40;16.95;;;4.47;;
66893;SDS011;53801;55.786;49.142;2022-12-18T05:07:05;15.63;;;4.00;;
66893;SDS011;53801;55.786;49.142;2022-12-18T05:09:31;16.30;;;5.23;;
66893;SDS011;53801;55.786;49.142;2022-12-18T05:11:56;15.30;;;4.23;;
66893;SDS011;53801;55.786;49.142;2022-12-18T05:14:21;11.50;;;3.23;;
66893;SDS011;53801;55.786;49.142;2022-12-18T05:16:47;14.88;;;4.53;;
66893;SDS011;53801;55.786;49.142;2022-12-18T05:19:12;13.27;;;3.95;;
66893;SDS011;53801;55.786;49.142;2022-12-18T05:21:38;10.30;;;3.97;;
66893;SDS011;53801;55.786;49.142;2022-12-18T05:24:03;9.93;;;3.53;;
66893;SDS011;53801;55.786;49.142;2022-12-18T05:26:29;11.27;;;3.63;;
66893;SDS011;53801;55.786;49.142;2022-12-18T05:29:06;11.57;;;3.43;;
66893;SDS011;53801;55.786;49.142;2022-12-18T05:31:44;13.45;;;3.53;;
66893;SDS011;53801;55.786;49.142;2022-12-18T05:34:10;9.85;;;2.97;;
66893;SDS011;53801;55.786;49.142;2022-12-18T05:36:35;9.87;;;2.40;;
66893;SDS011;53801;55.786;49.142;2022-12-18T05:39:00;12.07;;;3.10;;
66893;SDS011;53801;55.786;49.142;2022-12-18T05:41:26;7.47;;;2.93;;
66893;SDS011;53801;55.786;49.142;2022-12-18T05:43:52;10.68;;;3.17;;
66893;SDS011;53801;55.786;49.142;2022-12-18T05:46:17;10.90;;;3.58;;
66893;SDS011;53801;55.786;49.142;2022-12-18T05:48:43;13.80;;;3.10;;
66893;SDS011;53801;55.786;49.142;2022-12-18T05:51:10;11.35;;;3.67;;
66893;SDS011;53801;55.786;49.142;2022-12-18T05:53:36;9.63;;;3.10;;
66893;SDS011;53801;55.786;49.142;2022-12-18T05:56:02;11.50;;;3.22;;
66893;SDS011;53801;55.786;49.142;2022-12-18T05:58:28;9.55;;;2.90;;
66893;SDS011;53801;55.786;49.142;2022-12-18T06:00:53;10.00;;;2.23;;
66893;SDS011;53801;55.786;49.142;2022-12-18T06:03:21;8.38;;;3.10;;
66893;SDS011;53801;55.786;49.142;2022-12-18T06:05:46;10.40;;;3.03;;
66893;SDS011;53801;55.786;49.142;2022-12-18T06:08:12;10.43;;;4.10;;
66893;SDS011;53801;55.786;49.142;2022-12-18T06:10:38;10.70;;;3.55;;
66893;SDS011;53801;55.786;49.142;2022-12-18T06:13:04;10.37;;;3.80;;
66893;SDS011;53801;55.786;49.142;2022-12-18T06:15:29;11.75;;;3.25;;
66893;SDS011;53801;55.786;49.142;2022-12-18T06:17:55;7.70;;;2.63;;
66893;SDS011;53801;55.786;49.142;2022-12-18T06:20:21;11.77;;;3.83;;
66893;SDS011;53801;55.786;49.142;2022-12-18T06:22:46;11.52;;;3.63;;
66893;SDS011;53801;55.786;49.142;2022-12-18T06:25:11;10.97;;;3.50;;
66893;SDS011;53801;55.786;49.142;2022-12-18T06:27:39;13.07;;;4.05;;
66893;SDS011;53801;55.786;49.142;2022-12-18T06:30:04;10.40;;;3.10;;
66893;SDS011;53801;55.786;49.142;2022-12-18T06:32:30;12.03;;;3.17;;
66893;SDS011;53801;55.786;49.142;2022-12-18T06:34:55;10.43;;;3.67;;
66893;SDS011;53801;55.786;49.142;2022-12-18T06:37:21;13.40;;;3.77;;
66893;SDS011;53801;55.786;49.142;2022-12-18T06:39:49;10.05;;;4.00;;
66893;SDS011;53801;55.786;49.142;2022-12-18T06:42:15;6.07;;;2.60;;
66893;SDS011;53801;55.786;49.142;2022-12-18T06:44:40;9.60;;;3.93;;
66893;SDS011;53801;55.786;49.142;2022-12-18T06:47:05;8.43;;;2.87;;
66893;SDS011;53801;55.786;49.142;2022-12-18T06:49:31;9.83;;;3.73;;
66893;SDS011;53801;55.786;49.142;2022-12-18T06:51:56;12.13;;;3.78;;
66893;SDS011;53801;55.786;49.142;2022-12-18T06:54:22;9.45;;;3.70;;
66893;SDS011;53801;55.786;49.142;2022-12-18T06:56:47;8.70;;;3.60;;
66893;SDS011;53801;55.786;49.142;2022-12-18T06:59:13;10.67;;;3.73;;
66893;SDS011;53801;55.786;49.142;2022-12-18T07:01:38;9.18;;;3.38;;
66893;SDS011;53801;55.786;49.142;2022-12-18T07:04:04;14.43;;;4.03;;
66893;SDS011;53801;55.786;49.142;2022-12-18T07:06:29;10.27;;;3.80;;
66893;SDS011;53801;55.786;49.142;2022-12-18T07:08:55;12.03;;;4.30;;
66893;SDS011;53801;55.786;49.142;2022-12-18T07:11:20;10.07;;;4.13;;
66893;SDS011;53801;55.786;49.142;2022-12-18T07:13:46;15.35;;;5.00;;
66893;SDS011;53801;55.786;49.142;2022-12-18T07:16:12;16.63;;;4.43;;
66893;SDS011;53801;55.786;49.142;2022-12-18T07:18:38;12.85;;;4.75;;
66893;SDS011;53801;55.786;49.142;2022-12-18T07:21:07;15.83;;;4.97;;
66893;SDS011;53801;55.786;49.142;2022-12-18T07:23:33;16.55;;;5.45;;
66893;SDS011;53801;55.786;49.142;2022-12-18T07:26:03;15.52;;;5.00;;
66893;SDS011;53801;55.786;49.142;2022-12-18T07:28:29;14.90;;;5.28;;
66893;SDS011;53801;55.786;49.142;2022-12-18T07:30:54;12.88;;;4.72;;
66893;SDS011;53801;55.786;49.142;2022-12-18T07:33:20;16.55;;;5.38;;
66893;SDS011;53801;55.786;49.142;2022-12-18T07:35:47;13.63;;;4.23;;
66893;SDS011;53801;55.786;49.142;2022-12-18T07:38:13;13.93;;;5.03;;
66893;SDS011;53801;55.786;49.142;2022-12-18T07:40:38;13.10;;;5.13;;
66893;SDS011;53801;55.786;49.142;2022-12-18T07:43:07;13.40;;;4.87;;
66893;SDS011;53801;55.786;49.142;2022-12-18T07:45:33;14.05;;;5.07;;
66893;SDS011;53801;55.786;49.142;2022-12-18T07:47:58;16.03;;;5.13;;
66893;SDS011;53801;55.786;49.142;2022-12-18T07:50:23;15.07;;;4.70;;
66893;SDS011;53801;55.786;49.142;2022-12-18T07:52:49;16.20;;;5.13;;
66893;SDS011;53801;55.786;49.142;2022-12-18T07:55:14;14.87;;;4.73;;
66893;SDS011;53801;55.786;49.142;2022-12-18T07:57:43;12.30;;;4.30;;
66893;SDS011;53801;55.786;49.142;2022-12-18T08:00:33;11.15;;;4.05;;
66893;SDS011;53801;55.786;49.142;2022-12-18T08:02:59;11.02;;;3.60;;
66893;SDS011;53801;55.786;49.142;2022-12-18T08:05:26;11.10;;;4.00;;
66893;SDS011;53801;55.786;49.142;2022-12-18T08:08:27;12.85;;;4.32;;
66893;SDS011;53801;55.786;49.142;2022-12-18T08:10:52;13.20;;;3.70;;
66893;SDS011;53801;55.786;49.142;2022-12-18T08:13:17;14.97;;;3.67;;
66893;SDS011;53801;55.786;49.142;2022-12-18T08:15:43;9.83;;;3.40;;
66893;SDS011;53801;55.786;49.142;2022-12-18T08:18:08;9.98;;;3.75;;
66893;SDS011;53801;55.786;49.142;2022-12-18T08:20:36;10.33;;;3.23;;
66893;SDS011;53801;55.786;49.142;2022-12-18T08:26:27;9.23;;;3.13;;
66893;SDS011;53801;55.786;49.142;2022-12-18T08:29:08;6.53;;;2.28;;
66893;SDS011;53801;55.786;49.142;2022-12-18T08:31:45;10.48;;;3.00;;
66893;SDS011;53801;55.786;49.142;2022-12-18T08:34:19;8.90;;;3.03;;
66893;SDS011;53801;55.786;49.142;2022-12-18T08:36:45;8.40;;;2.63;;
66893;SDS011;53801;55.786;49.142;2022-12-18T08:39:12;7.22;;;2.67;;
66893;SDS011;53801;55.786;49.142;2022-12-18T08:41:40;7.80;;;2.60;;
66893;SDS011;53801;55.786;49.142;2022-12-18T08:44:07;8.52;;;2.55;;
66893;SDS011;53801;55.786;49.142;2022-12-18T08:49:48;5.90;;;2.42;;
66893;SDS011;53801;55.786;49.142;2022-12-18T08:52:14;9.37;;;2.57;;
66893;SDS011;53801;55.786;49.142;2022-12-18T08:54:39;6.05;;;2.17;;
66893;SDS011;53801;55.786;49.142;2022-12-18T08:57:04;9.13;;;2.40;;
66893;SDS011;53801;55.786;49.142;2022-12-18T08:59:30;8.20;;;2.87;;
66893;SDS011;53801;55.786;49.142;2022-12-18T09:01:55;7.83;;;2.50;;
66893;SDS011;53801;55.786;49.142;2022-12-18T09:04:26;6.40;;;2.23;;
66893;SDS011;53801;55.786;49.142;2022-12-18T09:06:55;8.43;;;2.58;;
66893;SDS011;53801;55.786;49.142;2022-12-18T09:09:23;7.90;;;2.05;;
66893;SDS011;53801;55.786;49.142;2022-12-18T09:11:49;4.33;;;1.37;;
66893;SDS011;53801;55.786;49.142;2022-12-18T09:14:14;7.18;;;2.10;;
66893;SDS011;53801;55.786;49.142;2022-12-18T09:17:01;6.17;;;1.63;;
66893;SDS011;53801;55.786;49.142;2022-12-18T09:19:28;8.25;;;1.98;;
66893;SDS011;53801;55.786;49.142;2022-12-18T09:24:44;9.23;;;1.77;;
66893;SDS011;53801;55.786;49.142;2022-12-18T09:27:31;6.63;;;2.40;;
66893;SDS011;53801;55.786;49.142;2022-12-18T09:29:56;10.50;;;2.65;;
66893;SDS011;53801;55.786;49.142;2022-12-18T09:32:22;7.67;;;2.40;;
66893;SDS011;53801;55.786;49.142;2022-12-18T09:34:50;11.60;;;3.05;;
66893;SDS011;53801;55.786;49.142;2022-12-18T09:37:17;8.27;;;2.42;;
66893;SDS011;53801;55.786;49.142;2022-12-18T09:39:45;9.03;;;2.50;;
66893;SDS011;53801;55.786;49.142;2022-12-18T09:42:31;9.85;;;2.60;;
66893;SDS011;53801;55.786;49.142;2022-12-18T09:44:57;9.53;;;3.17;;
66893;SDS011;53801;55.786;49.142;2022-12-18T09:47:24;8.73;;;2.15;;
66893;SDS011;53801;55.786;49.142;2022-12-18T09:49:53;11.80;;;3.88;;
66893;SDS011;53801;55.786;49.142;2022-12-18T09:57:47;0.13;;;0.10;;
66893;SDS011;53801;55.786;49.142;2022-12-18T10:00:24;0.20;;;0.10;;
66893;SDS011;53801;55.786;49.142;2022-12-18T10:03:09;0.22;;;0.20;;
66893;SDS011;53801;55.786;49.142;2022-12-18T10:14:33;0.35;;;0.32;;
66893;SDS011;53801;55.786;49.142;2022-12-18T10:17:02;0.20;;;0.10;;
66893;SDS011;53801;55.786;49.142;2022-12-18T10:42:22;0.45;;;0.45;;
66893;SDS011;53801;55.786;49.142;2022-12-18T10:48:19;0.20;;;0.10;;
66893;SDS011;53801;55.786;49.142;2022-12-18T10:56:20;1.20;;;1.10;;
66893;SDS011;53801;55.786;49.142;2022-12-18T11:01:18;3.40;;;3.20;;
66893;SDS011;53801;55.786;49.142;2022-12-18T11:19:19;0.20;;;0.10;;
66893;SDS011;53801;55.786;49.142;2022-12-18T11:21:46;0.20;;;0.10;;
66893;SDS011;53801;55.786;49.142;2022-12-18T11:26:58;0.20;;;0.10;;
66893;SDS011;53801;55.786;49.142;2022-12-18T11:33:13;0.20;;;0.10;;
66893;SDS011;53801;55.786;49.142;2022-12-18T11:36:09;0.13;;;0.10;;
66893;SDS011;53801;55.786;49.142;2022-12-18T11:38:42;0.20;;;0.10;;
66893;SDS011;53801;55.786;49.142;2022-12-18T11:41:21;0.32;;;0.22;;
66893;SDS011;53801;55.786;49.142;2022-12-18T11:47:07;0.20;;;0.10;;
66893;SDS011;53801;55.786;49.142;2022-12-18T11:49:46;0.83;;;0.83;;
66893;SDS011;53801;55.786;49.142;2022-12-18T11:52:19;0.95;;;0.82;;
66893;SDS011;53801;55.786;49.142;2022-12-18T11:54:58;0.20;;;0.10;;
66893;SDS011;53801;55.786;49.142;2022-12-18T11:57:36;0.30;;;0.22;;
66893;SDS011;53801;55.786;49.142;2022-12-18T12:00:12;0.20;;;0.10;;
66893;SDS011;53801;55.786;49.142;2022-12-18T12:03:13;0.27;;;0.20;;
66893;SDS011;53801;55.786;49.142;2022-12-18T12:18:22;0.60;;;0.53;;
66893;SDS011;53801;55.786;49.142;2022-12-18T12:24:08;0.20;;;0.10;;
66893;SDS011;53801;55.786;49.142;2022-12-18T12:29:27;0.57;;;0.57;;
66893;SDS011;53801;55.786;49.142;2022-12-18T12:38:19;1.17;;;0.80;;
66893;SDS011;53801;55.786;49.142;2022-12-18T12:40:54;0.20;;;0.10;;
66893;SDS011;53801;55.786;49.142;2022-12-18T12:45:54;0.43;;;0.43;;
66893;SDS011;53801;55.786;49.142;2022-12-18T12:50:54;0.20;;;0.10;;
66893;SDS011;53801;55.786;49.142;2022-12-18T12:53:30;0.65;;;0.63;;
66893;SDS011;53801;55.786;49.142;2022-12-18T12:55:58;0.20;;;0.20;;
66893;SDS011;53801;55.786;49.142;2022-12-18T12:58:43;0.23;;;0.13;;
66893;SDS011;53801;55.786;49.142;2022-12-18T13:01:28;0.20;;;0.10;;
66893;SDS011;53801;55.786;49.142;2022-12-18T13:03:56;0.20;;;0.17;;
66893;SDS011;53801;55.786;49.142;2022-12-18T13:08:57;0.20;;;0.10;;
66893;SDS011;53801;55.786;49.142;2022-12-18T13:14:20;0.30;;;0.25;;
66893;SDS011;53801;55.786;49.142;2022-12-18T13:16:46;0.20;;;0.10;;
66893;SDS011;53801;55.786;49.142;2022-12-18T13:19:19;0.20;;;0.10;;
66893;SDS011;53801;55.786;49.142;2022-12-18T13:24:44;7.82;;;4.80;;
66893;SDS011;53801;55.786;49.142;2022-12-18T13:32:25;0.63;;;0.50;;
66893;SDS011;53801;55.786;49.142;2022-12-18T13:43:30;0.20;;;0.10;;
66893;SDS011;53801;55.786;49.142;2022-12-18T13:46:06;0.20;;;0.10;;
66893;SDS011;53801;55.786;49.142;2022-12-18T13:48:48;0.65;;;0.52;;
66893;SDS011;53801;55.786;49.142;2022-12-18T13:51:17;0.20;;;0.20;;
66893;SDS011;53801;55.786;49.142;2022-12-18T13:53:44;0.20;;;0.10;;
66893;SDS011;53801;55.786;49.142;2022-12-18T14:07:18;0.60;;;0.50;;
66893;SDS011;53801;55.786;49.142;2022-12-18T14:12:25;1.75;;;1.48;;
66893;SDS011;53801;55.786;49.142;2022-12-18T14:15:17;0.55;;;0.43;;
66893;SDS011;53801;55.786;49.142;2022-12-18T14:17:50;0.20;;;0.10;;
66893;SDS011;53801;55.786;49.142;2022-12-18T14:20:15;0.20;;;0.10;;
66893;SDS011;53801;55.786;49.142;2022-12-18T14:22:42;0.20;;;0.10;;
66893;SDS011;53801;55.786;49.142;2022-12-18T14:25:18;0.20;;;0.10;;
66893;SDS011;53801;55.786;49.142;2022-12-18T14:27:45;0.20;;;0.10;;
66893;SDS011;53801;55.786;49.142;2022-12-18T14:30:24;0.35;;;0.25;;
66893;SDS011;53801;55.786;49.142;2022-12-18T14:33:08;0.40;;;0.33;;
66893;SDS011;53801;55.786;49.142;2022-12-18T14:35:35;0.30;;;0.30;;
66893;SDS011;53801;55.786;49.142;2022-12-18T14:40:36;0.20;;;0.10;;
66893;SDS011;53801;55.786;49.142;2022-12-18T14:43:01;0.20;;;0.10;;
66893;SDS011;53801;55.786;49.142;2022-12-18T14:45:34;0.67;;;0.67;;
66893;SDS011;53801;55.786;49.142;2022-12-18T14:47:59;0.68;;;0.68;;
66893;SDS011;53801;55.786;49.142;2022-12-18T14:50:25;0.20;;;0.10;;
66893;SDS011;53801;55.786;49.142;2022-12-18T14:52:51;0.20;;;0.10;;
66893;SDS011;53801;55.786;49.142;2022-12-18T14:55:17;0.30;;;0.20;;
66893;SDS011;53801;55.786;49.142;2022-12-18T14:57:43;0.20;;;0.13;;
66893;SDS011;53801;55.786;49.142;2022-12-18T15:00:17;0.20;;;0.10;;
66893;SDS011;53801;55.786;49.142;2022-12-18T15:02:54;0.40;;;0.38;;
66893;SDS011;53801;55.786;49.142;2022-12-18T15:05:29;0.20;;;0.10;;
66893;SDS011;53801;55.786;49.142;2022-12-18T15:08:00;0.20;;;0.10;;
66893;SDS011;53801;55.786;49.142;2022-12-18T15:14:03;0.20;;;0.10;;
66893;SDS011;53801;55.786;49.142;2022-12-18T15:16:33;0.20;;;0.10;;
66893;SDS011;53801;55.786;49.142;2022-12-18T15:18:59;0.20;;;0.10;;
66893;SDS011;53801;55.786;49.142;2022-12-18T15:21:25;0.20;;;0.10;;
66893;SDS011;53801;55.786;49.142;2022-12-18T15:24:04;0.20;;;0.13;;
66893;SDS011;53801;55.786;49.142;2022-12-18T15:26:30;0.73;;;0.50;;
66893;SDS011;53801;55.786;49.142;2022-12-18T15:29:05;0.20;;;0.10;;
66893;SDS011;53801;55.786;49.142;2022-12-18T15:31:31;0.20;;;0.10;;
66893;SDS011;53801;55.786;49.142;2022-12-18T15:36:33;0.28;;;0.17;;
66893;SDS011;53801;55.786;49.142;2022-12-18T15:39:02;0.20;;;0.10;;
66893;SDS011;53801;55.786;49.142;2022-12-18T15:41:28;0.40;;;0.30;;
66893;SDS011;53801;55.786;49.142;2022-12-18T15:43:53;1.42;;;0.75;;
66893;SDS011;53801;55.786;49.142;2022-12-18T15:46:19;0.30;;;0.30;;
66893;SDS011;53801;55.786;49.142;2022-12-18T15:48:46;0.20;;;0.10;;
66893;SDS011;53801;55.786;49.142;2022-12-18T15:51:19;0.40;;;0.30;;
66893;SDS011;53801;55.786;49.142;2022-12-18T15:56:31;0.30;;;0.20;;
66893;SDS011;53801;55.786;49.142;2022-12-18T15:59:18;0.20;;;0.10;;
66893;SDS011;53801;55.786;49.142;2022-12-18T16:01:47;0.20;;;0.10;;
66893;SDS011;53801;55.786;49.142;2022-12-18T16:06:48;0.22;;;0.15;;
66893;SDS011;53801;55.786;49.142;2022-12-18T16:11:59;0.20;;;0.10;;
66893;SDS011;53801;55.786;49.142;2022-12-18T16:14:25;0.20;;;0.10;;
66893;SDS011;53801;55.786;49.142;2022-12-18T16:16:53;0.20;;;0.10;;
66893;SDS011;53801;55.786;49.142;2022-12-18T16:19:18;1.05;;;0.85;;
66893;SDS011;53801;55.786;49.142;2022-12-18T16:21:45;0.30;;;0.22;;
66893;SDS011;53801;55.786;49.142;2022-12-18T16:24:21;0.45;;;0.35;;
66893;SDS011;53801;55.786;49.142;2022-12-18T16:26:47;0.20;;;0.17;;
66893;SDS011;53801;55.786;49.142;2022-12-18T16:29:16;0.43;;;0.40;;
66893;SDS011;53801;55.786;49.142;2022-12-18T16:31:45;0.30;;;0.22;;
66893;SDS011;53801;55.786;49.142;2022-12-18T16:34:11;1.03;;;0.60;;
66893;SDS011;53801;55.786;49.142;2022-12-18T16:36:37;0.20;;;0.10;;
66893;SDS011;53801;55.786;49.142;2022-12-18T16:39:05;0.20;;;0.10;;
66893;SDS011;53801;55.786;49.142;2022-12-18T16:41:31;0.22;;;0.13;;
66893;SDS011;53801;55.786;49.142;2022-12-18T16:44:12;0.23;;;0.13;;
66893;SDS011;53801;55.786;49.142;2022-12-18T16:46:42;0.20;;;0.10;;
66893;SDS011;53801;55.786;49.142;2022-12-18T16:52:12;0.43;;;0.35;;
66893;SDS011;53801;55.786;49.142;2022-12-18T16:54:58;0.60;;;0.60;;
66893;SDS011;53801;55.786;49.142;2022-12-18T16:57:23;0.20;;;0.10;;
66893;SDS011;53801;55.786;49.142;2022-12-18T16:59:52;0.20;;;0.10;;
66893;SDS011;53801;55.786;49.142;2022-12-18T17:02:23;0.20;;;0.10;;
66893;SDS011;53801;55.786;49.142;2022-12-18T17:07:15;0.20;;;0.10;;
66893;SDS011;53801;55.786;49.142;2022-12-18T17:15:46;0.20;;;0.10;;
66893;SDS011;53801;55.786;49.142;2022-12-18T17:21:39;0.20;;;0.10;;
66893;SDS011;53801;55.786;49.142;2022-12-18T17:24:24;1.20;;;0.77;;
66893;SDS011;53801;55.786;49.142;2022-12-18T17:26:49;0.30;;;0.20;;
66893;SDS011;53801;55.786;49.142;2022-12-18T17:30:01;0.20;;;0.10;;
66893;SDS011;53801;55.786;49.142;2022-12-18T17:38:01;0.20;;;0.10;;
66893;SDS011;53801;55.786;49.142;2022-12-18T17:40:26;0.67;;;0.50;;
66893;SDS011;53801;55.786;49.142;2022-12-18T17:42:55;0.20;;;0.10;;
66893;SDS011;53801;55.786;49.142;2022-12-18T17:45:40;0.73;;;0.73;;
66893;SDS011;53801;55.786;49.142;2022-12-18T17:48:09;0.25;;;0.20;;
66893;SDS011;53801;55.786;49.142;2022-12-18T17:50:38;0.30;;;0.20;;
66893;SDS011;53801;55.786;49.142;2022-12-18T17:53:06;0.20;;;0.10;;
66893;SDS011;53801;55.786;49.142;2022-12-18T17:55:32;0.20;;;0.10;;
66893;SDS011;53801;55.786;49.142;2022-12-18T17:57:58;0.20;;;0.10;;
66893;SDS011;53801;55.786;49.142;2022-12-18T18:00:44;0.20;;;0.10;;
66893;SDS011;53801;55.786;49.142;2022-12-18T18:03:58;0.20;;;0.10;;
66893;SDS011;53801;55.786;49.142;2022-12-18T18:06:56;4.97;;;1.23;;
66893;SDS011;53801;55.786;49.142;2022-12-18T18:09:40;0.20;;;0.10;;
66893;SDS011;53801;55.786;49.142;2022-12-18T18:12:12;0.20;;;0.13;;
66893;SDS011;53801;55.786;49.142;2022-12-18T18:15:20;0.20;;;0.10;;
66893;SDS011;53801;55.786;49.142;2022-12-18T18:18:34;0.57;;;0.50;;
66893;SDS011;53801;55.786;49.142;2022-12-18T18:21:06;0.30;;;0.25;;
66893;SDS011;53801;55.786;49.142;2022-12-18T18:26:19;0.20;;;0.10;;